Canal Flats, Canada
Current Conditions -  °F | °C
As of 8:00 AM on Friday 24 Oct 2014 (Local Time) from CYXC Reporting Station
Broken Clouds Broken Clouds  
Wind Chill: 34°   Ceiling: 25000
Heat Index: 34°   Visibility: 25mi
Dew Point: 30°   Wind: 2mph
Humidity: 87%   Direction: NA
Pressure: 30"   Gusts: NA
Location:  50.15°N, 115.83°W
Report Text: CYXC 241400Z VRB02KT 25SM FEW040 FEW080 BKN250 01/M01 A3000 RMK SC1AC1CI3 SLP179
Loading
Personal Weather Stations






























Interactive Weather Map
Tropical Storm Tracking
New forecast layout! Learn more

10-Day Weather Forecast

Advertisements
Track Severe Weather on mobile